SBCT/CWB METAR and TAF weather

Enter ICAO airport designator
Station Type Date Time Source
SBCT METAR 2020/09/28 08:10 UTC NOAA

SBCT 280810Z 11004KT 9999 SCT015 16/16 Q1011


Station Type Date Time Source
SBCT Decoded METAR 2020/09/28 08:10 UTC NOAA

Curitiba Aeroporto , Brazil (SBCT) 25-31S 049-10W 908M
Sep 28, 2020 - 04:10 AM EDT / 2020.09.28 0810 UTC
Wind: from the ESE (110 degrees) at 5 MPH (4 KT):0
Visibility: greater than 7 mile(s):0
Sky conditions: partly cloudy
Temperature: 60 F (16 C)
Dew Point: 60 F (16 C)
Relative Humidity: 100%
Pressure (altimeter): 29.85 in. Hg (1011 hPa)
ob: SBCT 280810Z 11004KT 9999 SCT015 16/16 Q1011
cycle: 8

Station Type Date Time Source
SBCT TAF 2020/09/28 06:55 UTC NOAA

TAF SBCT 280300Z 2806/2906 27012KT CAVOK TX29/2815Z TN13/2905Z
BECMG 2809/2811 27015G29KT
BECMG 2816/2818 09010KT 9999 FEW020 FEW030TCU
BECMG 2818/2820 09010G20KT 5000 TSRA SCT020 FEW030CB
BECMG 2900/2902 09010KT 2000 TSRA BKN020 FEW030CB
RMK PEG

Example: see airport list